sensor_id;sensor_type;location;lat;lon;timestamp;temperature;humidity
10149;DHT22;5115;50.920;6.376;2022-08-03T00:00:43;21.70;99.90
10149;DHT22;5115;50.920;6.376;2022-08-03T00:03:09;21.70;99.90
10149;DHT22;5115;50.920;6.376;2022-08-03T00:05:35;21.70;99.90
10149;DHT22;5115;50.920;6.376;2022-08-03T00:08:01;21.80;99.90
10149;DHT22;5115;50.920;6.376;2022-08-03T00:10:26;21.80;99.90
10149;DHT22;5115;50.920;6.376;2022-08-03T00:12:52;21.80;99.90
10149;DHT22;5115;50.920;6.376;2022-08-03T00:15:18;21.90;99.90
10149;DHT22;5115;50.920;6.376;2022-08-03T00:17:44;21.80;99.90
10149;DHT22;5115;50.920;6.376;2022-08-03T00:20:11;21.70;99.90
10149;DHT22;5115;50.920;6.376;2022-08-03T00:22:37;21.60;99.90
10149;DHT22;5115;50.920;6.376;2022-08-03T00:25:03;21.40;99.90
10149;DHT22;5115;50.920;6.376;2022-08-03T00:27:29;21.20;99.90
10149;DHT22;5115;50.920;6.376;2022-08-03T00:29:54;21.10;99.90
10149;DHT22;5115;50.920;6.376;2022-08-03T00:32:20;21.00;99.90
10149;DHT22;5115;50.920;6.376;2022-08-03T00:34:47;21.00;99.90
10149;DHT22;5115;50.920;6.376;2022-08-03T00:37:12;21.00;99.90
10149;DHT22;5115;50.920;6.376;2022-08-03T00:39:38;20.90;99.90
10149;DHT22;5115;50.920;6.376;2022-08-03T00:42:05;20.90;99.90
10149;DHT22;5115;50.920;6.376;2022-08-03T00:44:31;21.00;99.90
10149;DHT22;5115;50.920;6.376;2022-08-03T00:46:56;20.30;99.90
10149;DHT22;5115;50.920;6.376;2022-08-03T00:49:22;21.10;99.90
10149;DHT22;5115;50.920;6.376;2022-08-03T00:51:48;21.20;99.90
10149;DHT22;5115;50.920;6.376;2022-08-03T00:54:14;21.20;99.90
10149;DHT22;5115;50.920;6.376;2022-08-03T00:56:41;21.30;99.90
10149;DHT22;5115;50.920;6.376;2022-08-03T00:59:08;21.30;99.90
10149;DHT22;5115;50.920;6.376;2022-08-03T01:01:34;21.40;99.90
10149;DHT22;5115;50.920;6.376;2022-08-03T01:04:00;21.50;99.90
10149;DHT22;5115;50.920;6.376;2022-08-03T01:06:40;21.10;99.90
10149;DHT22;5115;50.920;6.376;2022-08-03T01:12:09;20.70;99.90
10149;DHT22;5115;50.920;6.376;2022-08-03T01:15:14;20.70;99.90
10149;DHT22;5115;50.920;6.376;2022-08-03T01:18:03;20.70;99.90
10149;DHT22;5115;50.920;6.376;2022-08-03T01:20:35;20.80;99.90
10149;DHT22;5115;50.920;6.376;2022-08-03T01:23:26;20.90;99.90
10149;DHT22;5115;50.920;6.376;2022-08-03T01:29:31;21.00;99.90
10149;DHT22;5115;50.920;6.376;2022-08-03T01:32:04;21.10;99.90
10149;DHT22;5115;50.920;6.376;2022-08-03T01:34:38;21.10;99.90
10149;DHT22;5115;50.920;6.376;2022-08-03T01:37:08;21.20;99.90
10149;DHT22;5115;50.920;6.376;2022-08-03T01:39:36;21.20;99.90
10149;DHT22;5115;50.920;6.376;2022-08-03T01:42:04;21.20;99.90
10149;DHT22;5115;50.920;6.376;2022-08-03T01:44:35;21.20;99.90
10149;DHT22;5115;50.920;6.376;2022-08-03T01:47:02;21.10;99.90
10149;DHT22;5115;50.920;6.376;2022-08-03T01:49:29;21.10;99.90
10149;DHT22;5115;50.920;6.376;2022-08-03T01:51:56;21.10;99.90
10149;DHT22;5115;50.920;6.376;2022-08-03T01:54:24;21.10;99.90
10149;DHT22;5115;50.920;6.376;2022-08-03T01:56:51;21.10;99.90
10149;DHT22;5115;50.920;6.376;2022-08-03T01:59:19;21.10;99.90
10149;DHT22;5115;50.920;6.376;2022-08-03T02:01:47;21.00;99.90
10149;DHT22;5115;50.920;6.376;2022-08-03T02:04:15;21.00;99.90
10149;DHT22;5115;50.920;6.376;2022-08-03T02:06:42;20.90;99.90
10149;DHT22;5115;50.920;6.376;2022-08-03T02:09:14;20.90;99.90
10149;DHT22;5115;50.920;6.376;2022-08-03T02:11:42;20.90;99.90
10149;DHT22;5115;50.920;6.376;2022-08-03T02:14:09;21.00;99.90
10149;DHT22;5115;50.920;6.376;2022-08-03T02:16:36;20.80;99.90
10149;DHT22;5115;50.920;6.376;2022-08-03T02:19:05;20.80;99.90
10149;DHT22;5115;50.920;6.376;2022-08-03T02:21:35;20.80;99.90
10149;DHT22;5115;50.920;6.376;2022-08-03T02:24:01;20.80;99.90
10149;DHT22;5115;50.920;6.376;2022-08-03T02:26:29;20.70;99.90
10149;DHT22;5115;50.920;6.376;2022-08-03T02:28:59;20.60;99.90
10149;DHT22;5115;50.920;6.376;2022-08-03T02:31:28;20.70;99.90
10149;DHT22;5115;50.920;6.376;2022-08-03T02:33:58;20.60;99.90
10149;DHT22;5115;50.920;6.376;2022-08-03T02:36:27;20.50;99.90
10149;DHT22;5115;50.920;6.376;2022-08-03T02:38:57;20.50;99.90
10149;DHT22;5115;50.920;6.376;2022-08-03T02:41:30;20.50;99.90
10149;DHT22;5115;50.920;6.376;2022-08-03T02:43:57;20.60;99.90
10149;DHT22;5115;50.920;6.376;2022-08-03T02:46:29;20.60;99.90
10149;DHT22;5115;50.920;6.376;2022-08-03T02:48:56;20.70;99.90
10149;DHT22;5115;50.920;6.376;2022-08-03T02:51:22;20.60;99.90
10149;DHT22;5115;50.920;6.376;2022-08-03T02:53:49;20.70;99.90
10149;DHT22;5115;50.920;6.376;2022-08-03T02:56:16;20.60;99.90
10149;DHT22;5115;50.920;6.376;2022-08-03T02:58:43;20.50;99.90
10149;DHT22;5115;50.920;6.376;2022-08-03T03:01:10;20.50;99.90
10149;DHT22;5115;50.920;6.376;2022-08-03T03:03:37;20.40;99.90
10149;DHT22;5115;50.920;6.376;2022-08-03T03:06:03;20.40;99.90
10149;DHT22;5115;50.920;6.376;2022-08-03T03:08:30;20.30;99.90
10149;DHT22;5115;50.920;6.376;2022-08-03T03:10:59;20.10;99.90
10149;DHT22;5115;50.920;6.376;2022-08-03T03:13:27;20.10;99.90
10149;DHT22;5115;50.920;6.376;2022-08-03T03:15:53;20.20;99.90
10149;DHT22;5115;50.920;6.376;2022-08-03T03:18:20;20.30;99.90
10149;DHT22;5115;50.920;6.376;2022-08-03T03:20:47;20.30;99.90
10149;DHT22;5115;50.920;6.376;2022-08-03T03:23:15;20.30;99.90
10149;DHT22;5115;50.920;6.376;2022-08-03T03:25:42;20.20;99.90
10149;DHT22;5115;50.920;6.376;2022-08-03T03:28:09;20.10;99.90
10149;DHT22;5115;50.920;6.376;2022-08-03T03:30:35;20.20;99.90
10149;DHT22;5115;50.920;6.376;2022-08-03T03:33:01;20.30;99.90
10149;DHT22;5115;50.920;6.376;2022-08-03T03:35:27;20.20;99.90
10149;DHT22;5115;50.920;6.376;2022-08-03T03:37:53;20.20;99.90
10149;DHT22;5115;50.920;6.376;2022-08-03T03:40:19;20.10;99.90
10149;DHT22;5115;50.920;6.376;2022-08-03T03:42:45;20.10;99.90
10149;DHT22;5115;50.920;6.376;2022-08-03T03:45:11;20.10;99.90
10149;DHT22;5115;50.920;6.376;2022-08-03T03:47:37;20.00;99.90
10149;DHT22;5115;50.920;6.376;2022-08-03T03:50:04;20.00;99.90
10149;DHT22;5115;50.920;6.376;2022-08-03T03:52:31;20.00;99.90
10149;DHT22;5115;50.920;6.376;2022-08-03T03:54:57;20.00;99.90
10149;DHT22;5115;50.920;6.376;2022-08-03T03:57:24;20.00;99.90
10149;DHT22;5115;50.920;6.376;2022-08-03T03:59:50;19.60;99.90
10149;DHT22;5115;50.920;6.376;2022-08-03T04:02:16;20.00;99.90
10149;DHT22;5115;50.920;6.376;2022-08-03T04:04:41;20.00;99.90
10149;DHT22;5115;50.920;6.376;2022-08-03T04:07:26;20.00;99.90
10149;DHT22;5115;50.920;6.376;2022-08-03T04:10:22;20.00;99.90
10149;DHT22;5115;50.920;6.376;2022-08-03T04:13:09;20.00;99.90
10149;DHT22;5115;50.920;6.376;2022-08-03T04:15:38;19.80;99.90
10149;DHT22;5115;50.920;6.376;2022-08-03T04:18:06;19.70;99.90
10149;DHT22;5115;50.920;6.376;2022-08-03T04:20:34;19.70;99.90
10149;DHT22;5115;50.920;6.376;2022-08-03T04:23:02;19.80;99.90
10149;DHT22;5115;50.920;6.376;2022-08-03T04:25:31;19.70;99.90
10149;DHT22;5115;50.920;6.376;2022-08-03T04:27:59;19.70;99.90
10149;DHT22;5115;50.920;6.376;2022-08-03T04:30:29;19.60;99.90
10149;DHT22;5115;50.920;6.376;2022-08-03T04:32:56;19.60;99.90
10149;DHT22;5115;50.920;6.376;2022-08-03T04:35:30;19.70;99.90
10149;DHT22;5115;50.920;6.376;2022-08-03T04:38:00;19.10;99.90
10149;DHT22;5115;50.920;6.376;2022-08-03T04:40:32;19.70;99.90
10149;DHT22;5115;50.920;6.376;2022-08-03T04:42:58;19.80;99.90
10149;DHT22;5115;50.920;6.376;2022-08-03T04:45:26;19.70;99.90
10149;DHT22;5115;50.920;6.376;2022-08-03T04:47:53;19.60;99.90
10149;DHT22;5115;50.920;6.376;2022-08-03T04:50:19;19.50;99.90
10149;DHT22;5115;50.920;6.376;2022-08-03T04:52:47;19.70;99.90
10149;DHT22;5115;50.920;6.376;2022-08-03T04:55:30;19.80;99.90
10149;DHT22;5115;50.920;6.376;2022-08-03T04:57:57;19.80;99.90
10149;DHT22;5115;50.920;6.376;2022-08-03T05:00:23;20.00;99.90
10149;DHT22;5115;50.920;6.376;2022-08-03T05:02:49;20.10;99.90
10149;DHT22;5115;50.920;6.376;2022-08-03T05:05:15;20.00;99.90
10149;DHT22;5115;50.920;6.376;2022-08-03T05:07:41;20.10;99.90
10149;DHT22;5115;50.920;6.376;2022-08-03T05:10:08;20.10;99.90
10149;DHT22;5115;50.920;6.376;2022-08-03T05:12:34;20.30;99.90
10149;DHT22;5115;50.920;6.376;2022-08-03T05:15:00;20.60;99.90
10149;DHT22;5115;50.920;6.376;2022-08-03T05:17:26;21.00;99.90
10149;DHT22;5115;50.920;6.376;2022-08-03T05:19:51;20.90;99.90
10149;DHT22;5115;50.920;6.376;2022-08-03T05:22:17;21.20;99.90
10149;DHT22;5115;50.920;6.376;2022-08-03T05:24:42;21.30;99.90
10149;DHT22;5115;50.920;6.376;2022-08-03T05:27:08;21.60;99.90
10149;DHT22;5115;50.920;6.376;2022-08-03T05:29:33;21.80;99.90
10149;DHT22;5115;50.920;6.376;2022-08-03T05:31:59;22.10;99.90
10149;DHT22;5115;50.920;6.376;2022-08-03T05:34:26;22.30;99.90
10149;DHT22;5115;50.920;6.376;2022-08-03T05:36:51;22.50;99.90
10149;DHT22;5115;50.920;6.376;2022-08-03T05:39:17;22.80;99.90
10149;DHT22;5115;50.920;6.376;2022-08-03T05:41:42;23.30;99.90
10149;DHT22;5115;50.920;6.376;2022-08-03T05:44:08;23.50;99.90
10149;DHT22;5115;50.920;6.376;2022-08-03T05:46:33;23.90;99.90
10149;DHT22;5115;50.920;6.376;2022-08-03T05:48:59;24.30;99.90
10149;DHT22;5115;50.920;6.376;2022-08-03T05:51:25;25.10;99.90
10149;DHT22;5115;50.920;6.376;2022-08-03T05:53:50;25.20;99.90
10149;DHT22;5115;50.920;6.376;2022-08-03T05:56:16;25.50;99.90
10149;DHT22;5115;50.920;6.376;2022-08-03T05:58:46;25.70;99.90
10149;DHT22;5115;50.920;6.376;2022-08-03T06:01:12;26.30;99.90
10149;DHT22;5115;50.920;6.376;2022-08-03T06:03:37;26.20;99.90
10149;DHT22;5115;50.920;6.376;2022-08-03T06:06:03;26.00;99.90
10149;DHT22;5115;50.920;6.376;2022-08-03T06:08:28;25.90;99.90
10149;DHT22;5115;50.920;6.376;2022-08-03T06:10:54;25.90;99.90
10149;DHT22;5115;50.920;6.376;2022-08-03T06:13:19;25.90;99.90
10149;DHT22;5115;50.920;6.376;2022-08-03T06:15:46;26.20;99.90
10149;DHT22;5115;50.920;6.376;2022-08-03T06:18:11;25.80;99.90
10149;DHT22;5115;50.920;6.376;2022-08-03T06:20:37;25.60;99.90
10149;DHT22;5115;50.920;6.376;2022-08-03T06:23:02;25.90;99.90
10149;DHT22;5115;50.920;6.376;2022-08-03T06:25:28;26.50;99.90
10149;DHT22;5115;50.920;6.376;2022-08-03T06:27:55;26.80;99.90
10149;DHT22;5115;50.920;6.376;2022-08-03T06:30:20;27.20;99.90
10149;DHT22;5115;50.920;6.376;2022-08-03T06:32:46;27.60;99.90
10149;DHT22;5115;50.920;6.376;2022-08-03T06:35:11;27.80;99.90
10149;DHT22;5115;50.920;6.376;2022-08-03T06:37:41;27.60;99.90
10149;DHT22;5115;50.920;6.376;2022-08-03T06:40:08;27.30;99.90
10149;DHT22;5115;50.920;6.376;2022-08-03T06:42:34;27.30;99.90
10149;DHT22;5115;50.920;6.376;2022-08-03T06:44:59;27.40;99.90
10149;DHT22;5115;50.920;6.376;2022-08-03T06:47:25;27.40;99.90
10149;DHT22;5115;50.920;6.376;2022-08-03T06:49:50;27.50;99.90
10149;DHT22;5115;50.920;6.376;2022-08-03T06:52:16;28.20;99.90
10149;DHT22;5115;50.920;6.376;2022-08-03T06:54:41;28.60;99.90
10149;DHT22;5115;50.920;6.376;2022-08-03T06:57:07;28.90;99.90
10149;DHT22;5115;50.920;6.376;2022-08-03T06:59:33;29.40;99.90
10149;DHT22;5115;50.920;6.376;2022-08-03T07:01:59;29.50;99.90
10149;DHT22;5115;50.920;6.376;2022-08-03T07:04:24;29.90;99.90
10149;DHT22;5115;50.920;6.376;2022-08-03T07:06:50;30.00;99.90
10149;DHT22;5115;50.920;6.376;2022-08-03T07:09:16;30.40;99.90
10149;DHT22;5115;50.920;6.376;2022-08-03T07:11:42;30.40;99.90
10149;DHT22;5115;50.920;6.376;2022-08-03T07:14:07;30.40;99.90
10149;DHT22;5115;50.920;6.376;2022-08-03T07:16:33;30.60;99.90
10149;DHT22;5115;50.920;6.376;2022-08-03T07:18:58;30.00;99.90
10149;DHT22;5115;50.920;6.376;2022-08-03T07:21:24;29.70;99.90
10149;DHT22;5115;50.920;6.376;2022-08-03T07:23:49;29.60;99.90
10149;DHT22;5115;50.920;6.376;2022-08-03T07:26:15;29.60;99.90
10149;DHT22;5115;50.920;6.376;2022-08-03T07:28:40;29.90;99.90
10149;DHT22;5115;50.920;6.376;2022-08-03T07:31:06;30.30;99.90
10149;DHT22;5115;50.920;6.376;2022-08-03T07:33:32;30.30;99.90
10149;DHT22;5115;50.920;6.376;2022-08-03T07:35:57;30.60;99.90
10149;DHT22;5115;50.920;6.376;2022-08-03T07:38:23;31.10;99.90
10149;DHT22;5115;50.920;6.376;2022-08-03T07:40:48;31.40;99.90
10149;DHT22;5115;50.920;6.376;2022-08-03T07:43:14;31.60;99.90
10149;DHT22;5115;50.920;6.376;2022-08-03T07:45:39;31.70;99.90
10149;DHT22;5115;50.920;6.376;2022-08-03T07:48:05;31.80;99.90
10149;DHT22;5115;50.920;6.376;2022-08-03T07:50:30;31.90;99.90
10149;DHT22;5115;50.920;6.376;2022-08-03T07:52:56;31.80;99.90
10149;DHT22;5115;50.920;6.376;2022-08-03T07:55:23;32.20;99.90
10149;DHT22;5115;50.920;6.376;2022-08-03T07:58:00;32.20;99.90
10149;DHT22;5115;50.920;6.376;2022-08-03T08:00:25;32.20;99.90
10149;DHT22;5115;50.920;6.376;2022-08-03T08:02:51;32.40;99.90
10149;DHT22;5115;50.920;6.376;2022-08-03T08:05:16;32.20;99.90
10149;DHT22;5115;50.920;6.376;2022-08-03T08:07:42;32.40;99.90
10149;DHT22;5115;50.920;6.376;2022-08-03T08:10:09;32.20;99.90
10149;DHT22;5115;50.920;6.376;2022-08-03T08:12:35;33.10;99.90
10149;DHT22;5115;50.920;6.376;2022-08-03T08:15:01;33.40;99.90
10149;DHT22;5115;50.920;6.376;2022-08-03T08:17:26;33.60;99.90
10149;DHT22;5115;50.920;6.376;2022-08-03T08:19:52;34.40;99.90
10149;DHT22;5115;50.920;6.376;2022-08-03T08:22:18;35.00;99.90
10149;DHT22;5115;50.920;6.376;2022-08-03T08:24:43;35.60;99.90
10149;DHT22;5115;50.920;6.376;2022-08-03T08:27:09;35.40;99.90
10149;DHT22;5115;50.920;6.376;2022-08-03T08:29:37;35.20;99.90
10149;DHT22;5115;50.920;6.376;2022-08-03T08:32:02;34.30;99.90
10149;DHT22;5115;50.920;6.376;2022-08-03T08:34:29;34.30;99.90
10149;DHT22;5115;50.920;6.376;2022-08-03T08:36:55;34.40;99.90
10149;DHT22;5115;50.920;6.376;2022-08-03T08:39:20;34.90;99.90
10149;DHT22;5115;50.920;6.376;2022-08-03T08:41:49;34.80;99.90
10149;DHT22;5115;50.920;6.376;2022-08-03T08:44:14;35.00;99.90
10149;DHT22;5115;50.920;6.376;2022-08-03T08:46:40;34.50;99.90
10149;DHT22;5115;50.920;6.376;2022-08-03T08:49:08;34.40;99.90
10149;DHT22;5115;50.920;6.376;2022-08-03T08:51:34;34.70;99.90
10149;DHT22;5115;50.920;6.376;2022-08-03T08:54:02;35.00;99.90
10149;DHT22;5115;50.920;6.376;2022-08-03T08:56:31;35.30;99.90
10149;DHT22;5115;50.920;6.376;2022-08-03T08:58:58;35.30;99.50
10149;DHT22;5115;50.920;6.376;2022-08-03T09:01:25;35.60;99.70
10149;DHT22;5115;50.920;6.376;2022-08-03T09:03:51;35.80;99.50
10149;DHT22;5115;50.920;6.376;2022-08-03T09:06:21;35.20;99.50
10149;DHT22;5115;50.920;6.376;2022-08-03T09:08:47;35.10;99.60
10149;DHT22;5115;50.920;6.376;2022-08-03T09:11:13;35.40;99.10
10149;DHT22;5115;50.920;6.376;2022-08-03T09:13:38;35.50;99.40
10149;DHT22;5115;50.920;6.376;2022-08-03T09:16:22;35.50;98.80
10149;DHT22;5115;50.920;6.376;2022-08-03T09:18:51;35.70;98.80
10149;DHT22;5115;50.920;6.376;2022-08-03T09:21:18;35.20;98.70
10149;DHT22;5115;50.920;6.376;2022-08-03T09:23:53;35.20;99.20
10149;DHT22;5115;50.920;6.376;2022-08-03T09:26:20;35.60;98.30
10149;DHT22;5115;50.920;6.376;2022-08-03T09:28:46;35.40;97.90
10149;DHT22;5115;50.920;6.376;2022-08-03T09:31:18;35.50;97.90
10149;DHT22;5115;50.920;6.376;2022-08-03T09:33:47;35.60;98.60
10149;DHT22;5115;50.920;6.376;2022-08-03T09:36:35;36.10;98.10
10149;DHT22;5115;50.920;6.376;2022-08-03T09:39:03;36.20;97.30
10149;DHT22;5115;50.920;6.376;2022-08-03T09:41:31;36.20;97.60
10149;DHT22;5115;50.920;6.376;2022-08-03T09:43:56;36.40;97.00
10149;DHT22;5115;50.920;6.376;2022-08-03T09:46:22;35.70;96.90
10149;DHT22;5115;50.920;6.376;2022-08-03T09:48:47;36.10;97.70
10149;DHT22;5115;50.920;6.376;2022-08-03T09:51:15;35.90;97.10
10149;DHT22;5115;50.920;6.376;2022-08-03T09:53:46;35.40;96.90
10149;DHT22;5115;50.920;6.376;2022-08-03T09:56:12;35.80;97.90
10149;DHT22;5115;50.920;6.376;2022-08-03T09:58:45;35.80;96.90
10149;DHT22;5115;50.920;6.376;2022-08-03T10:01:12;36.00;97.20
10149;DHT22;5115;50.920;6.376;2022-08-03T10:03:39;36.10;96.80
10149;DHT22;5115;50.920;6.376;2022-08-03T10:06:34;35.90;96.60
10149;DHT22;5115;50.920;6.376;2022-08-03T10:09:12;35.90;96.70
10149;DHT22;5115;50.920;6.376;2022-08-03T10:11:39;36.20;96.90
10149;DHT22;5115;50.920;6.376;2022-08-03T10:14:07;36.00;96.40
10149;DHT22;5115;50.920;6.376;2022-08-03T10:16:38;36.30;97.40
10149;DHT22;5115;50.920;6.376;2022-08-03T10:19:05;36.20;96.30
10149;DHT22;5115;50.920;6.376;2022-08-03T10:21:34;36.10;96.20
10149;DHT22;5115;50.920;6.376;2022-08-03T10:24:02;36.30;96.20
10149;DHT22;5115;50.920;6.376;2022-08-03T10:26:31;36.40;96.50
10149;DHT22;5115;50.920;6.376;2022-08-03T10:28:59;36.20;96.10
10149;DHT22;5115;50.920;6.376;2022-08-03T10:31:27;36.40;95.80
10149;DHT22;5115;50.920;6.376;2022-08-03T10:33:56;36.30;95.30
10149;DHT22;5115;50.920;6.376;2022-08-03T10:36:23;36.50;94.70
10149;DHT22;5115;50.920;6.376;2022-08-03T10:38:50;36.30;94.40
10149;DHT22;5115;50.920;6.376;2022-08-03T10:41:20;36.60;94.90
10149;DHT22;5115;50.920;6.376;2022-08-03T10:43:55;36.50;94.50
10149;DHT22;5115;50.920;6.376;2022-08-03T10:46:21;36.50;94.70
10149;DHT22;5115;50.920;6.376;2022-08-03T10:48:51;36.20;94.30
10149;DHT22;5115;50.920;6.376;2022-08-03T10:51:18;36.10;95.70
10149;DHT22;5115;50.920;6.376;2022-08-03T10:53:44;35.90;94.90
10149;DHT22;5115;50.920;6.376;2022-08-03T10:59:17;36.10;95.00
10149;DHT22;5115;50.920;6.376;2022-08-03T11:01:54;36.10;95.00
10149;DHT22;5115;50.920;6.376;2022-08-03T11:04:21;36.00;94.70
10149;DHT22;5115;50.920;6.376;2022-08-03T11:09:40;35.70;94.60
10149;DHT22;5115;50.920;6.376;2022-08-03T11:12:27;35.90;95.10
10149;DHT22;5115;50.920;6.376;2022-08-03T11:14:54;36.20;94.80
10149;DHT22;5115;50.920;6.376;2022-08-03T11:17:21;36.20;94.80
10149;DHT22;5115;50.920;6.376;2022-08-03T11:19:51;36.10;94.40
10149;DHT22;5115;50.920;6.376;2022-08-03T11:22:18;36.20;94.50
10149;DHT22;5115;50.920;6.376;2022-08-03T11:38:00;35.60;94.50
10149;DHT22;5115;50.920;6.376;2022-08-03T11:40:48;35.40;94.60
10149;DHT22;5115;50.920;6.376;2022-08-03T11:46:01;35.10;94.60
10149;DHT22;5115;50.920;6.376;2022-08-03T11:48:48;35.30;93.30
10149;DHT22;5115;50.920;6.376;2022-08-03T11:51:28;35.40;93.30
10149;DHT22;5115;50.920;6.376;2022-08-03T11:53:56;35.40;93.20
10149;DHT22;5115;50.920;6.376;2022-08-03T11:56:22;35.20;93.90
10149;DHT22;5115;50.920;6.376;2022-08-03T11:58:50;35.20;93.60
10149;DHT22;5115;50.920;6.376;2022-08-03T12:01:18;35.20;93.90
10149;DHT22;5115;50.920;6.376;2022-08-03T12:03:44;35.20;93.90
10149;DHT22;5115;50.920;6.376;2022-08-03T12:06:11;35.00;93.70
10149;DHT22;5115;50.920;6.376;2022-08-03T12:08:38;35.20;94.00
10149;DHT22;5115;50.920;6.376;2022-08-03T12:11:06;35.10;93.70
10149;DHT22;5115;50.920;6.376;2022-08-03T12:13:45;35.20;93.70
10149;DHT22;5115;50.920;6.376;2022-08-03T12:16:23;35.20;92.50
10149;DHT22;5115;50.920;6.376;2022-08-03T12:19:04;35.20;92.50
10149;DHT22;5115;50.920;6.376;2022-08-03T12:21:31;35.20;92.60
10149;DHT22;5115;50.920;6.376;2022-08-03T12:23:58;34.90;93.20
10149;DHT22;5115;50.920;6.376;2022-08-03T12:26:25;34.80;94.30
10149;DHT22;5115;50.920;6.376;2022-08-03T12:28:51;34.90;93.40
10149;DHT22;5115;50.920;6.376;2022-08-03T12:31:16;35.00;93.90
10149;DHT22;5115;50.920;6.376;2022-08-03T12:34:03;34.70;94.20
10149;DHT22;5115;50.920;6.376;2022-08-03T12:36:31;34.80;93.90
10149;DHT22;5115;50.920;6.376;2022-08-03T12:38:59;34.80;93.70
10149;DHT22;5115;50.920;6.376;2022-08-03T12:41:30;34.70;93.30
10149;DHT22;5115;50.920;6.376;2022-08-03T12:43:56;34.70;92.60
10149;DHT22;5115;50.920;6.376;2022-08-03T12:46:27;34.70;92.80
10149;DHT22;5115;50.920;6.376;2022-08-03T12:51:32;34.60;93.10
10149;DHT22;5115;50.920;6.376;2022-08-03T12:53:58;34.60;93.80
10149;DHT22;5115;50.920;6.376;2022-08-03T12:56:24;34.50;93.90
10149;DHT22;5115;50.920;6.376;2022-08-03T12:58:50;34.70;93.50
10149;DHT22;5115;50.920;6.376;2022-08-03T13:01:16;34.90;93.40
10149;DHT22;5115;50.920;6.376;2022-08-03T13:03:47;34.80;93.70
10149;DHT22;5115;50.920;6.376;2022-08-03T13:06:14;34.70;93.60
10149;DHT22;5115;50.920;6.376;2022-08-03T13:08:41;34.70;93.50
10149;DHT22;5115;50.920;6.376;2022-08-03T13:13:42;34.40;94.50
10149;DHT22;5115;50.920;6.376;2022-08-03T13:16:08;34.30;94.60
10149;DHT22;5115;50.920;6.376;2022-08-03T13:18:33;34.40;94.10
10149;DHT22;5115;50.920;6.376;2022-08-03T13:20:59;34.50;93.70
10149;DHT22;5115;50.920;6.376;2022-08-03T13:23:24;34.30;94.10
10149;DHT22;5115;50.920;6.376;2022-08-03T13:25:50;34.20;94.10
10149;DHT22;5115;50.920;6.376;2022-08-03T13:28:15;34.20;94.20
10149;DHT22;5115;50.920;6.376;2022-08-03T13:30:41;34.40;93.90
10149;DHT22;5115;50.920;6.376;2022-08-03T13:33:08;34.50;93.70
10149;DHT22;5115;50.920;6.376;2022-08-03T13:35:33;34.50;93.20
10149;DHT22;5115;50.920;6.376;2022-08-03T13:37:59;34.40;93.20
10149;DHT22;5115;50.920;6.376;2022-08-03T13:40:24;34.20;93.40
10149;DHT22;5115;50.920;6.376;2022-08-03T13:42:50;34.30;93.80
10149;DHT22;5115;50.920;6.376;2022-08-03T13:45:15;34.30;94.00
10149;DHT22;5115;50.920;6.376;2022-08-03T13:47:41;34.20;94.00
10149;DHT22;5115;50.920;6.376;2022-08-03T13:50:07;34.30;94.00
10149;DHT22;5115;50.920;6.376;2022-08-03T13:52:33;34.20;93.90
10149;DHT22;5115;50.920;6.376;2022-08-03T13:55:00;34.10;93.90
10149;DHT22;5115;50.920;6.376;2022-08-03T13:57:25;34.00;94.20
10149;DHT22;5115;50.920;6.376;2022-08-03T13:59:51;33.90;94.20
10149;DHT22;5115;50.920;6.376;2022-08-03T14:02:17;34.00;94.00
10149;DHT22;5115;50.920;6.376;2022-08-03T14:04:42;34.10;93.90
10149;DHT22;5115;50.920;6.376;2022-08-03T14:07:08;33.90;94.00
10149;DHT22;5115;50.920;6.376;2022-08-03T14:09:33;33.90;94.00
10149;DHT22;5115;50.920;6.376;2022-08-03T14:11:59;34.00;93.60
10149;DHT22;5115;50.920;6.376;2022-08-03T14:14:25;33.90;94.10
10149;DHT22;5115;50.920;6.376;2022-08-03T14:16:50;33.70;93.70
10149;DHT22;5115;50.920;6.376;2022-08-03T14:19:16;33.80;93.80
10149;DHT22;5115;50.920;6.376;2022-08-03T14:21:41;33.90;93.60
10149;DHT22;5115;50.920;6.376;2022-08-03T14:24:07;33.90;93.70
10149;DHT22;5115;50.920;6.376;2022-08-03T14:26:32;33.90;93.30
10149;DHT22;5115;50.920;6.376;2022-08-03T14:28:58;34.10;93.40
10149;DHT22;5115;50.920;6.376;2022-08-03T14:31:24;33.90;93.40
10149;DHT22;5115;50.920;6.376;2022-08-03T14:33:50;33.70;93.60
10149;DHT22;5115;50.920;6.376;2022-08-03T14:36:16;33.70;93.70
10149;DHT22;5115;50.920;6.376;2022-08-03T14:38:41;34.10;94.30
10149;DHT22;5115;50.920;6.376;2022-08-03T14:41:07;33.50;94.30
10149;DHT22;5115;50.920;6.376;2022-08-03T14:43:32;33.60;94.00
10149;DHT22;5115;50.920;6.376;2022-08-03T14:45:58;33.60;94.00
10149;DHT22;5115;50.920;6.376;2022-08-03T14:48:23;33.60;94.20
10149;DHT22;5115;50.920;6.376;2022-08-03T14:50:51;33.70;94.00
10149;DHT22;5115;50.920;6.376;2022-08-03T14:53:17;33.70;93.90
10149;DHT22;5115;50.920;6.376;2022-08-03T14:55:43;33.70;93.80
10149;DHT22;5115;50.920;6.376;2022-08-03T14:58:10;33.80;93.70
10149;DHT22;5115;50.920;6.376;2022-08-03T15:00:35;33.80;93.60
10149;DHT22;5115;50.920;6.376;2022-08-03T15:03:02;33.60;94.30
10149;DHT22;5115;50.920;6.376;2022-08-03T15:05:28;33.60;93.90
10149;DHT22;5115;50.920;6.376;2022-08-03T15:07:54;33.80;93.90
10149;DHT22;5115;50.920;6.376;2022-08-03T15:10:19;33.80;94.20
10149;DHT22;5115;50.920;6.376;2022-08-03T15:12:45;33.40;94.00
10149;DHT22;5115;50.920;6.376;2022-08-03T15:15:11;33.60;93.70
10149;DHT22;5115;50.920;6.376;2022-08-03T15:17:36;33.70;93.60
10149;DHT22;5115;50.920;6.376;2022-08-03T15:20:03;33.50;94.20
10149;DHT22;5115;50.920;6.376;2022-08-03T15:22:29;33.60;94.30
10149;DHT22;5115;50.920;6.376;2022-08-03T15:24:54;33.60;94.60
10149;DHT22;5115;50.920;6.376;2022-08-03T15:27:20;33.60;93.80
10149;DHT22;5115;50.920;6.376;2022-08-03T15:29:46;33.60;94.10
10149;DHT22;5115;50.920;6.376;2022-08-03T15:32:12;33.70;93.60
10149;DHT22;5115;50.920;6.376;2022-08-03T15:34:37;33.70;93.80
10149;DHT22;5115;50.920;6.376;2022-08-03T15:37:03;33.70;93.20
10149;DHT22;5115;50.920;6.376;2022-08-03T15:39:29;33.70;93.70
10149;DHT22;5115;50.920;6.376;2022-08-03T15:41:55;33.50;93.90
10149;DHT22;5115;50.920;6.376;2022-08-03T15:44:20;33.40;93.80
10149;DHT22;5115;50.920;6.376;2022-08-03T15:46:46;33.30;93.70
10149;DHT22;5115;50.920;6.376;2022-08-03T15:49:12;33.40;94.20
10149;DHT22;5115;50.920;6.376;2022-08-03T15:51:37;33.40;93.80
10149;DHT22;5115;50.920;6.376;2022-08-03T15:54:03;33.40;93.70
10149;DHT22;5115;50.920;6.376;2022-08-03T15:56:30;33.50;93.40
10149;DHT22;5115;50.920;6.376;2022-08-03T15:58:56;33.40;93.50
10149;DHT22;5115;50.920;6.376;2022-08-03T16:01:22;33.30;93.40
10149;DHT22;5115;50.920;6.376;2022-08-03T16:03:49;33.20;93.60
10149;DHT22;5115;50.920;6.376;2022-08-03T16:06:15;33.30;93.30
10149;DHT22;5115;50.920;6.376;2022-08-03T16:08:41;33.40;93.50
10149;DHT22;5115;50.920;6.376;2022-08-03T16:11:06;33.50;93.10
10149;DHT22;5115;50.920;6.376;2022-08-03T16:13:32;33.40;93.60
10149;DHT22;5115;50.920;6.376;2022-08-03T16:15:57;33.30;93.10
10149;DHT22;5115;50.920;6.376;2022-08-03T16:18:24;33.00;93.00
10149;DHT22;5115;50.920;6.376;2022-08-03T16:20:49;33.00;93.40